Los Osos, California
Current Conditions -  °F | °C
As of 6:56 AM on Saturday 20 Dec 2014 (Local Time) from KSBP Reporting Station
Overcast Overcast  
Wind Chill: 54°   Ceiling: 1700
Heat Index: 54°   Visibility: 10mi
Dew Point: 51°   Wind: 3mph
Humidity: 90%   Direction: NA
Pressure: 30.18"   Gusts: NA
Location:  35.31°N, 120.83°W
Report Text: KSBP 201456Z VRB03KT 10SM OVC017 12/11 A3018 RMK AO2 SLP219 T01220106 53007
Loading
Personal Weather Stations






























Interactive Weather Map New forecast layout! Learn more

10-Day Weather Forecast

Advertisements
Track Severe Weather on mobile